Time;durP1;ratioP1;P1;durP2;ratioP2;P2;SDS_P1;SDS_P2;PMS_P1;PMS_P2;Temp;Humidity;BMP_temperature;BMP_pressure;BME280_temperature;BME280_humidity;BME280_pressure;Samples;Min_cycle;Max_cycle;Signal;HPM_P1;HPM_P2
2021/06/30 00:02:01;;;;;;;10.98;9.40;;;;;;;18.12;86.81;99474.81;4915465;29;20056;-64
2021/06/30 00:04:28;;;;;;;8.82;7.55;;;;;;;18.01;87.37;99481.72;4914931;29;20095;-63
2021/06/30 00:06:54;;;;;;;12.18;9.30;;;;;;;17.98;87.84;99481.28;4910093;29;20056;-64
2021/06/30 00:09:22;;;;;;;12.80;11.40;;;;;;;18.19;87.35;99480.22;4912659;29;20056;-65
2021/06/30 00:11:49;;;;;;;10.98;9.88;;;;;;;18.08;87.76;99482.50;4916109;29;20111;-64
2021/06/30 00:14:16;;;;;;;12.48;10.57;;;;;;;18.25;86.85;99476.66;4912370;29;20044;-64
2021/06/30 00:16:43;;;;;;;13.77;10.50;;;;;;;18.35;86.35;99475.19;4913393;29;20052;-65
2021/06/30 00:19:12;;;;;;;10.85;9.63;;;;;;;18.13;86.76;99471.03;4915683;29;20040;-64
2021/06/30 00:21:39;;;;;;;12.82;9.55;;;;;;;17.89;88.06;99477.97;4915745;29;20103;-63
2021/06/30 00:24:06;;;;;;;8.82;7.72;;;;;;;17.74;88.24;99470.00;4915728;29;20044;-64
2021/06/30 00:26:33;;;;;;;10.73;9.63;;;;;;;17.75;88.33;99471.69;4912698;29;20056;-63
2021/06/30 00:29:00;;;;;;;13.05;10.15;;;;;;;17.85;88.42;99473.97;4903412;29;20052;-64
2021/06/30 00:31:27;;;;;;;13.35;11.80;;;;;;;17.79;88.49;99472.94;4914961;29;20044;-62
2021/06/30 00:33:53;;;;;;;14.23;10.88;;;;;;;17.68;89.09;99464.56;4915741;29;20399;-64
2021/06/30 00:36:19;;;;;;;12.40;10.80;;;;;;;17.65;89.27;99463.13;4908435;29;20084;-65
2021/06/30 00:38:46;;;;;;;12.05;9.90;;;;;;;17.60;89.61;99468.31;4910938;29;20051;-64
2021/06/30 00:41:12;;;;;;;13.27;11.85;;;;;;;17.69;89.27;99460.84;4914704;29;20490;-64
2021/06/30 00:43:39;;;;;;;13.45;11.60;;;;;;;17.66;88.93;99459.34;4915084;29;20107;-66
2021/06/30 00:46:06;;;;;;;14.23;12.25;;;;;;;17.58;89.21;99456.84;4915072;29;20107;-65
2021/06/30 00:48:33;;;;;;;10.57;9.48;;;;;;;17.56;89.20;99456.22;4907303;29;20542;-65
2021/06/30 00:50:59;;;;;;;15.02;10.82;;;;;;;17.58;89.22;99462.28;4912045;29;20131;-65
2021/06/30 00:53:25;;;;;;;16.02;13.75;;;;;;;17.57;89.20;99457.06;4915497;29;20066;-66
2021/06/30 00:55:52;;;;;;;15.18;13.07;;;;;;;17.91;88.18;99453.31;4908926;29;20755;-63
2021/06/30 00:58:19;;;;;;;12.02;10.82;;;;;;;17.86;88.19;99450.38;4910659;29;20059;-63
2021/06/30 01:00:45;;;;;;;13.40;11.30;;;;;;;17.85;87.89;99456.84;4914690;29;20051;-62
2021/06/30 01:03:13;;;;;;;13.25;11.35;;;;;;;17.89;88.21;99458.13;4908263;29;20490;-66
2021/06/30 01:05:40;;;;;;;13.63;11.25;;;;;;;17.96;87.70;99459.78;4914444;29;20060;-64
2021/06/30 01:08:07;;;;;;;13.32;11.65;;;;;;;18.14;87.13;99458.28;4909689;29;20056;-65
2021/06/30 01:10:33;;;;;;;14.32;12.65;;;;;;;18.34;86.14;99467.22;4913582;29;20048;-63
2021/06/30 01:12:59;;;;;;;13.95;11.70;;;;;;;18.24;86.31;99470.41;4914641;29;20056;-64
2021/06/30 01:15:26;;;;;;;12.75;11.00;;;;;;;18.39;85.74;99473.69;4914988;29;20463;-63
2021/06/30 01:17:53;;;;;;;17.67;13.13;;;;;;;18.44;85.66;99475.75;4915352;29;20084;-64
2021/06/30 01:20:21;;;;;;;14.07;10.25;;;;;;;18.31;85.79;99476.63;4915036;29;20411;-66
2021/06/30 01:23:04;;;;;;;12.98;11.50;;;;;;;18.46;85.39;99478.25;4913687;29;20056;-65
2021/06/30 01:25:30;;;;;;;13.77;12.27;;;;;;;18.26;86.00;99484.59;4914260;29;20044;-65
2021/06/30 01:27:57;;;;;;;22.00;12.45;;;;;;;18.27;85.70;99485.41;4904914;29;20104;-64
2021/06/30 01:30:23;;;;;;;14.63;11.80;;;;;;;18.18;86.17;99476.66;4906033;29;20052;-64
2021/06/30 01:32:50;;;;;;;14.68;11.98;;;;;;;18.19;86.19;99470.19;4914649;29;20443;-63
2021/06/30 01:35:21;;;;;;;14.27;12.77;;;;;;;18.21;86.01;99459.09;4910682;29;20157;-64
2021/06/30 01:37:47;;;;;;;12.75;10.38;;;;;;;18.09;86.58;99461.63;4907290;29;20464;-64
2021/06/30 01:40:17;;;;;;;14.95;13.35;;;;;;;17.96;87.07;99458.94;4914042;29;20051;-65
2021/06/30 01:42:44;;;;;;;15.63;12.40;;;;;;;18.03;86.73;99454.34;4915076;29;20545;-66
2021/06/30 01:45:11;;;;;;;13.95;12.40;;;;;;;17.98;86.64;99452.25;4913936;29;20096;-64
2021/06/30 01:47:38;;;;;;;20.13;13.38;;;;;;;18.09;86.17;99443.44;4908254;29;20059;-66
2021/06/30 01:50:06;;;;;;;16.17;14.48;;;;;;;18.39;85.19;99438.38;4910880;29;20159;-63
2021/06/30 01:52:33;;;;;;;15.18;12.13;;;;;;;18.24;85.47;99431.53;4913733;29;20092;-64
2021/06/30 01:55:00;;;;;;;13.40;12.00;;;;;;;18.12;85.99;99423.22;4906517;29;20416;-63
2021/06/30 01:57:28;;;;;;;17.73;15.70;;;;;;;18.25;85.93;99428.59;4908500;29;20375;-64
2021/06/30 01:59:54;;;;;;;16.98;13.73;;;;;;;17.98;86.86;99427.81;4913803;29;20055;-65
2021/06/30 02:02:21;;;;;;;17.45;15.15;;;;;;;18.04;86.57;99434.28;4913216;29;20044;-65
2021/06/30 02:04:59;;;;;;;16.42;13.38;;;;;;;17.92;87.19;99428.69;4912504;29;20056;-63
2021/06/30 02:07:25;;;;;;;17.42;13.63;;;;;;;17.81;87.58;99430.16;4907604;29;20052;-65
2021/06/30 02:09:51;;;;;;;18.02;14.73;;;;;;;17.83;87.37;99425.34;4913318;29;20060;-64
2021/06/30 02:12:18;;;;;;;15.98;13.20;;;;;;;17.61;88.75;99425.75;4913405;29;20048;-65
2021/06/30 02:14:45;;;;;;;16.75;14.85;;;;;;;17.49;89.19;99428.25;4914067;29;20111;-64
2021/06/30 02:17:12;;;;;;;21.90;18.73;;;;;;;17.60;88.32;99424.06;4913136;29;20498;-65
2021/06/30 02:19:38;;;;;;;16.80;14.30;;;;;;;17.44;89.02;99425.34;4913531;29;20111;-65
2021/06/30 02:22:04;;;;;;;22.55;18.38;;;;;;;17.35;89.30;99426.56;4914024;29;20048;-62
2021/06/30 02:24:31;;;;;;;26.73;18.50;;;;;;;17.39;89.25;99423.22;4913754;29;20048;-65
2021/06/30 02:26:57;;;;;;;23.30;18.33;;;;;;;17.58;88.65;99420.75;4910765;29;20088;-63
2021/06/30 02:29:24;;;;;;;18.48;13.70;;;;;;;17.49;88.97;99425.53;4913873;29;20044;-65
2021/06/30 02:31:51;;;;;;;18.25;14.07;;;;;;;17.39;89.27;99433.25;4911679;29;20055;-65
2021/06/30 02:34:18;;;;;;;23.33;17.92;;;;;;;17.59;88.42;99439.53;4912932;29;20076;-64
2021/06/30 02:36:44;;;;;;;20.30;15.23;;;;;;;17.43;89.43;99448.91;4905758;29;20080;-64
2021/06/30 02:39:11;;;;;;;21.10;17.50;;;;;;;17.34;89.94;99457.44;4912477;29;20309;-63
2021/06/30 02:41:37;;;;;;;18.80;15.60;;;;;;;17.32;89.84;99454.94;4913894;29;20052;-64
2021/06/30 02:44:03;;;;;;;22.90;18.98;;;;;;;17.28;89.98;99458.25;4913928;29;20056;-65
2021/06/30 02:46:30;;;;;;;17.55;15.50;;;;;;;17.31;90.05;99457.88;4909616;29;20056;-64
2021/06/30 02:48:58;;;;;;;16.90;13.68;;;;;;;17.42;89.35;99454.56;4907366;29;20115;-63
2021/06/30 02:51:24;;;;;;;24.98;17.08;;;;;;;17.53;88.82;99457.47;4912481;29;20048;-65
2021/06/30 02:53:50;;;;;;;24.58;18.25;;;;;;;17.51;88.93;99447.84;4913153;29;20052;-63
2021/06/30 02:56:21;;;;;;;22.13;18.80;;;;;;;17.41;89.15;99458.31;4911819;29;20059;-63
2021/06/30 02:58:47;;;;;;;22.83;18.00;;;;;;;17.28;89.67;99452.84;4911460;29;20067;-65
2021/06/30 03:01:13;;;;;;;20.50;16.60;;;;;;;17.22;89.88;99441.78;4912893;29;20063;-64
2021/06/30 03:03:40;;;;;;;24.13;19.70;;;;;;;17.19;90.02;99454.94;4913386;29;20072;-64
2021/06/30 03:06:07;;;;;;;16.25;13.85;;;;;;;17.14;90.51;99452.81;4913019;29;20123;-63
2021/06/30 03:08:34;;;;;;;21.70;16.67;;;;;;;17.30;89.18;99454.31;4908039;29;20052;-64
2021/06/30 03:11:00;;;;;;;16.00;13.02;;;;;;;17.29;89.29;99455.38;4906201;29;20486;-64
2021/06/30 03:13:27;;;;;;;17.50;13.95;;;;;;;17.55;88.26;99462.69;4915327;29;20418;-64
2021/06/30 03:15:53;;;;;;;18.55;14.80;;;;;;;17.50;87.84;99463.28;4917285;29;20059;-63
2021/06/30 03:18:19;;;;;;;21.38;17.20;;;;;;;17.37;88.64;99473.31;4915716;29;20083;-65
2021/06/30 03:20:46;;;;;;;18.15;14.00;;;;;;;17.27;88.98;99473.69;4916737;29;20052;-65
2021/06/30 03:23:16;;;;;;;17.35;13.55;;;;;;;17.25;89.12;99475.78;4916276;29;20052;-63
2021/06/30 03:25:42;;;;;;;14.32;12.48;;;;;;;17.23;89.54;99476.00;4916898;29;20346;-64
2021/06/30 03:28:08;;;;;;;18.88;15.95;;;;;;;17.23;89.45;99475.16;4910232;29;20080;-64
2021/06/30 03:30:35;;;;;;;15.90;14.05;;;;;;;17.23;89.58;99472.44;4913785;29;20055;-64
2021/06/30 03:33:02;;;;;;;22.35;16.63;;;;;;;17.27;89.11;99476.41;4917439;29;20052;-63
2021/06/30 03:35:28;;;;;;;19.75;16.10;;;;;;;17.20;89.19;99472.88;4910018;29;20616;-63
2021/06/30 03:37:55;;;;;;;20.23;15.55;;;;;;;17.29;88.86;99470.81;4911310;29;20060;-63
2021/06/30 03:40:23;;;;;;;23.17;17.63;;;;;;;17.22;89.02;99479.75;4916832;29;20052;-64
2021/06/30 03:42:49;;;;;;;17.00;13.27;;;;;;;17.21;89.40;99479.97;4916593;29;20070;-64
2021/06/30 03:45:16;;;;;;;23.80;18.42;;;;;;;17.18;89.58;99478.50;4909286;29;20044;-63
2021/06/30 03:47:42;;;;;;;26.05;20.48;;;;;;;17.16;89.63;99475.13;4913295;29;20153;-64
2021/06/30 03:50:09;;;;;;;24.88;18.25;;;;;;;17.17;89.78;99479.56;4915505;29;20052;-64
2021/06/30 03:52:36;;;;;;;15.23;12.93;;;;;;;17.23;89.22;99477.88;4916548;29;20569;-64
2021/06/30 03:55:02;;;;;;;13.43;11.10;;;;;;;17.28;89.01;99474.53;4918054;29;20099;-64
2021/06/30 03:57:30;;;;;;;14.18;12.13;;;;;;;17.33;88.69;99483.75;4915519;29;20470;-63
2021/06/30 03:59:57;;;;;;;19.75;14.88;;;;;;;17.42;88.46;99476.25;4916015;29;20336;-63
2021/06/30 04:02:23;;;;;;;18.95;15.25;;;;;;;17.67;87.10;99465.63;4915354;29;20052;-63
2021/06/30 04:04:49;;;;;;;20.77;16.33;;;;;;;17.65;87.35;99454.97;4914905;29;20088;-63
2021/06/30 04:07:16;;;;;;;21.17;17.20;;;;;;;17.71;87.23;99443.31;4911885;29;20577;-63
2021/06/30 04:09:42;;;;;;;21.92;16.52;;;;;;;17.66;87.51;99440.38;4911359;29;20103;-64
2021/06/30 04:12:09;;;;;;;19.42;16.48;;;;;;;17.58;87.63;99437.03;4916965;29;20048;-64
2021/06/30 04:14:36;;;;;;;22.70;17.25;;;;;;;17.61;88.13;99442.84;4916491;29;20048;-62
2021/06/30 04:17:03;;;;;;;20.83;16.40;;;;;;;17.45;88.64;99446.00;4915377;29;20498;-64
2021/06/30 04:19:29;;;;;;;17.52;14.35;;;;;;;17.27;90.23;99445.75;4916723;29;20550;-65
2021/06/30 04:21:56;;;;;;;22.95;18.08;;;;;;;17.35;89.76;99453.69;4914768;29;20048;-63
2021/06/30 04:24:22;;;;;;;28.60;21.80;;;;;;;17.14;90.78;99455.53;4915211;29;20044;-64
2021/06/30 04:26:49;;;;;;;23.02;17.65;;;;;;;17.10;91.50;99467.00;4911665;29;20052;-64
2021/06/30 04:29:15;;;;;;;18.45;13.80;;;;;;;17.03;91.05;99464.25;4906559;29;20384;-64
2021/06/30 04:31:43;;;;;;;22.58;17.98;;;;;;;16.97;91.82;99462.38;4914618;29;20048;-65
2021/06/30 04:34:09;;;;;;;18.95;14.25;;;;;;;17.01;91.81;99457.38;4911416;29;20174;-63
2021/06/30 04:36:35;;;;;;;12.45;9.95;;;;;;;17.05;91.71;99455.94;4907222;29;20056;-63
2021/06/30 04:39:02;;;;;;;21.38;14.75;;;;;;;17.29;90.56;99458.09;4915553;29;20111;-63
2021/06/30 04:41:28;;;;;;;17.17;15.32;;;;;;;17.15;91.57;99457.19;4913915;29;20048;-64
2021/06/30 04:43:55;;;;;;;16.17;12.55;;;;;;;17.01;92.48;99455.50;4915855;29;20100;-64
2021/06/30 04:46:21;;;;;;;21.23;14.70;;;;;;;16.97;92.98;99453.44;4913730;29;20044;-62
2021/06/30 04:48:49;;;;;;;23.75;17.52;;;;;;;17.04;92.34;99451.53;4912804;29;20147;-63
2021/06/30 04:51:15;;;;;;;16.80;14.40;;;;;;;17.06;91.53;99458.47;4910049;29;20052;-65
2021/06/30 04:53:43;;;;;;;21.15;16.25;;;;;;;17.09;91.07;99457.22;4914904;29;20056;-62
2021/06/30 04:56:09;;;;;;;21.77;18.60;;;;;;;16.91;91.81;99466.72;4914178;29;20064;-64
2021/06/30 04:58:36;;;;;;;23.67;18.25;;;;;;;16.85;91.95;99474.84;4906290;29;20059;-64
2021/06/30 05:01:02;;;;;;;23.73;18.77;;;;;;;16.90;91.72;99473.19;4911503;29;20075;-62
2021/06/30 05:03:30;;;;;;;25.52;18.13;;;;;;;16.77;92.11;99472.31;4914613;29;20107;-63
2021/06/30 05:05:57;;;;;;;20.02;15.70;;;;;;;16.76;92.37;99466.06;4916002;29;20052;-64
2021/06/30 05:08:24;;;;;;;24.02;18.17;;;;;;;16.79;92.38;99462.94;4908500;29;20836;-62
2021/06/30 05:10:51;;;;;;;21.17;17.10;;;;;;;16.75;92.32;99458.97;4914946;29;20056;-64
2021/06/30 05:13:18;;;;;;;20.60;14.90;;;;;;;16.89;92.23;99467.97;4914004;29;20054;-64
2021/06/30 05:15:45;;;;;;;21.00;17.33;;;;;;;16.95;91.30;99461.75;4905798;29;20052;-65
2021/06/30 05:18:12;;;;;;;24.38;18.77;;;;;;;16.84;91.62;99465.91;4915674;29;20040;-63
2021/06/30 05:20:38;;;;;;;22.45;18.15;;;;;;;16.81;92.08;99463.59;4913707;29;20471;-64
2021/06/30 05:23:06;;;;;;;24.65;18.70;;;;;;;16.83;91.79;99471.53;4914886;29;20056;-64
2021/06/30 05:25:32;;;;;;;27.85;20.88;;;;;;;16.89;92.01;99471.53;4914819;29;20106;-64
2021/06/30 05:27:59;;;;;;;21.05;16.05;;;;;;;17.00;91.19;99471.97;4911570;29;20044;-63
2021/06/30 05:30:25;;;;;;;24.60;18.55;;;;;;;16.99;91.60;99471.16;4914452;29;20048;-64
2021/06/30 05:32:52;;;;;;;21.08;16.83;;;;;;;17.01;91.48;99466.34;4914737;29;20048;-64
2021/06/30 05:35:18;;;;;;;21.50;17.08;;;;;;;17.10;90.64;99465.13;4913286;29;20048;-65
2021/06/30 05:37:44;;;;;;;26.13;18.63;;;;;;;17.00;91.40;99467.41;4913992;29;20055;-65
2021/06/30 05:40:13;;;;;;;24.35;18.35;;;;;;;17.03;91.55;99466.97;4913914;29;20498;-65
2021/06/30 05:42:41;;;;;;;17.75;14.77;;;;;;;17.08;90.77;99472.63;4914911;29;20076;-64
2021/06/30 05:45:08;;;;;;;22.15;18.38;;;;;;;17.04;91.31;99484.06;4914210;29;20108;-62
2021/06/30 05:47:34;;;;;;;19.33;14.95;;;;;;;17.13;90.36;99489.13;4908904;29;20052;-65
2021/06/30 05:50:01;;;;;;;22.50;18.40;;;;;;;17.13;90.58;99486.41;4912649;29;20063;-64
2021/06/30 05:52:27;;;;;;;18.25;15.18;;;;;;;17.18;89.94;99486.63;4914088;29;20096;-64
2021/06/30 05:54:54;;;;;;;19.10;15.45;;;;;;;17.15;90.36;99484.31;4908611;29;20060;-63
2021/06/30 05:57:21;;;;;;;24.38;18.67;;;;;;;17.10;90.89;99484.09;4909933;29;20047;-64
2021/06/30 05:59:48;;;;;;;22.98;18.50;;;;;;;17.08;91.21;99477.22;4913370;29;20115;-64
2021/06/30 06:02:14;;;;;;;16.50;12.88;;;;;;;17.09;90.96;99479.72;4912221;29;20048;-64
2021/06/30 06:04:40;;;;;;;21.42;17.85;;;;;;;17.12;91.36;99482.03;4904374;29;20103;-64
2021/06/30 06:07:07;;;;;;;19.08;16.05;;;;;;;17.18;91.03;99483.09;4908593;29;20044;-63
2021/06/30 06:09:33;;;;;;;23.67;17.80;;;;;;;17.20;90.31;99486.44;4912784;29;20048;-63
2021/06/30 06:11:59;;;;;;;16.67;13.27;;;;;;;17.21;90.62;99483.50;4912707;29;20107;-64
2021/06/30 06:14:27;;;;;;;21.02;16.48;;;;;;;17.33;89.49;99491.03;4912700;29;20584;-63
2021/06/30 06:16:54;;;;;;;20.65;17.13;;;;;;;17.40;89.18;99486.44;4912380;29;20467;-62
2021/06/30 06:19:21;;;;;;;16.40;14.27;;;;;;;17.45;89.15;99486.69;4914309;29;20059;-63
2021/06/30 06:21:48;;;;;;;14.23;11.60;;;;;;;17.49;89.05;99490.63;4912367;29;20540;-64
2021/06/30 06:24:14;;;;;;;21.00;17.23;;;;;;;17.48;89.37;99497.94;4913248;29;20096;-62
2021/06/30 06:26:40;;;;;;;13.18;11.00;;;;;;;17.59;88.77;99491.06;4911660;29;20079;-63
2021/06/30 06:29:07;;;;;;;14.52;11.32;;;;;;;17.76;87.60;99486.13;4904019;29;20111;-63
2021/06/30 06:31:34;;;;;;;11.25;9.98;;;;;;;17.69;88.42;99482.56;4912314;29;20048;-64
2021/06/30 06:34:01;;;;;;;15.27;13.07;;;;;;;17.70;88.54;99478.78;4912941;29;20107;-63
2021/06/30 06:36:27;;;;;;;22.45;17.98;;;;;;;17.63;88.33;99478.75;4910392;29;20047;-64
2021/06/30 06:38:54;;;;;;;14.57;12.57;;;;;;;17.88;87.41;99475.44;4912823;29;20139;-65
2021/06/30 06:41:20;;;;;;;11.50;10.10;;;;;;;17.76;88.12;99489.66;4912154;29;20044;-64
2021/06/30 06:43:47;;;;;;;17.75;14.80;;;;;;;17.90;87.00;99486.94;4913039;29;20561;-63
2021/06/30 06:46:13;;;;;;;13.52;12.13;;;;;;;17.85;87.60;99489.44;4904515;29;20087;-63
2021/06/30 06:48:42;;;;;;;12.63;10.52;;;;;;;17.74;88.31;99491.72;4911176;29;20385;-64
2021/06/30 06:51:08;;;;;;;12.63;11.07;;;;;;;17.73;88.81;99489.22;4910617;29;20099;-64
2021/06/30 06:53:35;;;;;;;13.52;10.57;;;;;;;17.75;88.66;99484.41;4910572;29;20052;-65
2021/06/30 06:56:02;;;;;;;13.70;10.60;;;;;;;17.78;88.19;99486.75;4912033;29;20074;-64
2021/06/30 06:58:29;;;;;;;11.27;9.23;;;;;;;17.75;88.87;99487.97;4925270;23;20514;-73
2021/06/30 07:00:55;;;;;;;17.30;13.30;;;;;;;17.71;89.34;99484.00;4904144;29;20147;-74
2021/06/30 07:03:21;;;;;;;19.23;15.30;;;;;;;17.71;89.73;99484.00;4885578;29;20076;-75
2021/06/30 07:05:49;;;;;;;12.57;10.07;;;;;;;17.75;90.05;99489.84;4893202;29;20048;-73
2021/06/30 07:08:16;;;;;;;13.45;11.48;;;;;;;17.88;88.77;99489.88;4904675;29;20152;-73
2021/06/30 07:10:43;;;;;;;12.75;11.35;;;;;;;18.03;87.99;99492.34;4899300;29;20079;-74
2021/06/30 07:13:09;;;;;;;15.52;12.25;;;;;;;18.04;87.63;99480.44;4910500;29;20518;-74
2021/06/30 07:15:37;;;;;;;17.48;12.95;;;;;;;18.18;87.30;99483.97;4894444;29;20049;-74
2021/06/30 07:18:04;;;;;;;16.23;12.80;;;;;;;18.10;88.49;99487.72;4896848;29;20076;-76
2021/06/30 07:20:31;;;;;;;15.30;13.40;;;;;;;18.04;89.11;99483.16;4901096;29;20060;-74
2021/06/30 07:22:58;;;;;;;16.50;13.38;;;;;;;18.04;89.22;99483.16;4901686;29;20432;-74
2021/06/30 07:25:25;;;;;;;15.98;11.85;;;;;;;18.09;90.04;99486.91;4898862;29;20221;-73
2021/06/30 07:27:51;;;;;;;12.90;11.25;;;;;;;17.98;90.27;99492.97;4910846;29;20306;-77
2021/06/30 07:30:18;;;;;;;15.30;12.98;;;;;;;17.98;90.32;99492.13;4910089;29;20052;-73
2021/06/30 07:32:44;;;;;;;13.13;9.85;;;;;;;18.03;89.11;99508.66;4910622;29;20115;-73
2021/06/30 07:35:11;;;;;;;19.50;14.93;;;;;;;17.95;89.79;99504.25;4909224;29;20123;-74
2021/06/30 07:37:38;;;;;;;11.68;8.95;;;;;;;17.95;89.33;99504.25;4907059;29;20063;-73
2021/06/30 07:40:07;;;;;;;11.57;10.18;;;;;;;18.06;89.15;99500.91;4909090;29;20047;-73
2021/06/30 07:42:34;;;;;;;9.90;7.53;;;;;;;18.08;88.42;99497.97;4904417;29;20461;-74
2021/06/30 07:45:00;;;;;;;11.40;8.93;;;;;;;18.09;89.43;99496.94;4908574;29;20048;-73
2021/06/30 07:47:27;;;;;;;12.43;11.13;;;;;;;18.35;87.67;99502.34;4908869;29;20261;-73
2021/06/30 07:49:53;;;;;;;12.20;9.45;;;;;;;18.18;88.32;99498.38;4909570;29;20103;-72
2021/06/30 07:52:20;;;;;;;10.82;8.30;;;;;;;18.09;89.01;99491.50;4908008;29;20052;-74
2021/06/30 07:54:46;;;;;;;11.73;10.35;;;;;;;18.14;88.60;99490.88;4909319;29;20080;-75
2021/06/30 07:57:14;;;;;;;14.75;10.30;;;;;;;18.03;89.43;99492.34;4910056;29;20052;-77
2021/06/30 07:59:40;;;;;;;12.65;10.93;;;;;;;18.27;89.41;99488.97;4906890;29;20082;-73
2021/06/30 08:02:07;;;;;;;10.20;7.82;;;;;;;18.16;89.37;99489.63;4911219;29;20107;-75
2021/06/30 08:04:33;;;;;;;10.95;8.35;;;;;;;18.17;88.80;99493.16;4912029;29;20048;-73
2021/06/30 08:07:00;;;;;;;8.85;6.88;;;;;;;18.13;89.28;99492.75;4913918;29;20052;-73
2021/06/30 08:09:27;;;;;;;13.00;10.90;;;;;;;18.11;89.23;99492.97;4908821;29;20068;-73
2021/06/30 08:11:53;;;;;;;13.00;10.85;;;;;;;18.14;88.92;99488.16;4910340;29;20052;-77
2021/06/30 08:14:21;;;;;;;18.67;13.85;;;;;;;18.23;89.50;99490.44;4909429;29;20048;-73
2021/06/30 08:16:47;;;;;;;14.32;9.30;;;;;;;18.37;88.37;99486.66;4912241;29;20529;-71
2021/06/30 08:19:14;;;;;;;10.27;8.27;;;;;;;18.48;87.07;99497.91;4911764;29;20507;-76
2021/06/30 08:21:40;;;;;;;15.57;11.82;;;;;;;18.39;87.76;99494.59;4913307;29;20104;-74
2021/06/30 08:24:07;;;;;;;11.48;9.02;;;;;;;18.32;88.54;99491.03;4913388;29;20155;-74
2021/06/30 08:26:33;;;;;;;16.40;12.68;;;;;;;18.19;88.93;99493.78;4913787;29;20064;-74
2021/06/30 08:28:59;;;;;;;13.50;11.93;;;;;;;18.25;89.26;99495.66;4904181;29;20057;-74
2021/06/30 08:31:27;;;;;;;13.50;10.50;;;;;;;18.28;88.58;99493.34;4912391;29;20052;-73
2021/06/30 08:33:54;;;;;;;9.10;7.75;;;;;;;18.40;87.82;99494.38;4913051;29;20112;-73
2021/06/30 08:36:20;;;;;;;14.85;11.68;;;;;;;18.37;87.93;99505.66;4907985;29;20060;-74
2021/06/30 08:38:47;;;;;;;13.70;10.98;;;;;;;18.37;87.73;99511.09;4910671;29;20099;-73
2021/06/30 08:41:13;;;;;;;11.10;9.40;;;;;;;18.45;87.99;99509.19;4909811;29;20051;-74
2021/06/30 08:43:39;;;;;;;9.52;8.52;;;;;;;18.56;86.90;99511.25;4909055;29;20044;-76
2021/06/30 08:46:08;;;;;;;7.68;6.45;;;;;;;18.49;87.17;99513.16;4915020;29;20052;-75
2021/06/30 08:48:37;;;;;;;8.57;7.30;;;;;;;18.46;87.26;99510.84;4918016;29;20052;-76
2021/06/30 08:51:05;;;;;;;12.15;10.85;;;;;;;18.41;88.32;99509.63;4909593;29;20447;-73
2021/06/30 08:53:32;;;;;;;12.60;10.95;;;;;;;18.41;88.57;99515.06;4913528;29;20504;-74
2021/06/30 08:56:00;;;;;;;16.38;12.82;;;;;;;18.37;88.59;99513.81;4912859;29;20128;-73
2021/06/30 08:58:27;;;;;;;15.90;13.48;;;;;;;18.39;89.32;99513.59;4919993;29;20574;-74
2021/06/30 09:00:55;;;;;;;15.00;13.20;;;;;;;18.41;89.20;99515.06;4924123;29;20056;-76
2021/06/30 09:03:21;;;;;;;17.00;13.57;;;;;;;18.46;89.00;99516.28;4919640;29;20052;-73
2021/06/30 09:06:13;;;;;;;15.85;12.45;;;;;;;18.44;89.24;99512.94;4919108;29;20817;-77
2021/06/30 09:09:01;;;;;;;16.75;13.13;;;;;;;18.35;88.73;99515.06;4914876;29;20500;-76
2021/06/30 09:11:30;;;;;;;16.85;12.20;;;;;;;18.34;88.98;99519.66;4910841;29;20485;-76
2021/06/30 09:14:15;;;;;;;14.18;11.57;;;;;;;18.24;89.95;99519.28;4911425;29;20111;-77
2021/06/30 09:16:59;;;;;;;12.68;10.45;;;;;;;18.24;90.22;99524.72;4913115;29;20091;-76
2021/06/30 09:19:58;;;;;;;9.82;7.95;;;;;;;18.17;88.79;99528.47;4910952;29;20063;-76
2021/06/30 09:22:28;;;;;;;5.85;4.43;;;;;;;18.24;85.81;99527.44;4908351;29;20052;-77
2021/06/30 09:24:55;;;;;;;6.82;5.30;;;;;;;18.00;87.35;99528.09;4912862;29;20148;-74
2021/06/30 09:27:38;;;;;;;7.45;5.00;;;;;;;17.91;88.10;99523.91;4903191;29;20052;-77
2021/06/30 09:30:06;;;;;;;5.80;5.20;;;;;;;17.74;87.84;99539.75;4914552;29;20426;-79
2021/06/30 09:32:33;;;;;;;9.40;6.68;;;;;;;17.70;89.67;99544.75;4904867;29;20431;-76
2021/06/30 09:35:18;;;;;;;12.70;7.22;;;;;;;17.22;90.67;99542.13;4911742;29;20056;-76
2021/06/30 09:37:48;;;;;;;12.57;6.75;;;;;;;17.14;90.99;99555.84;4914162;29;20424;-77
2021/06/30 09:40:15;;;;;;;8.25;6.90;;;;;;;16.94;92.44;99565.81;4915728;29;20597;-76
2021/06/30 09:42:42;;;;;;;12.43;8.02;;;;;;;16.80;92.42;99553.19;4907321;29;20067;-78
2021/06/30 09:45:14;;;;;;;10.52;7.90;;;;;;;16.61;93.67;99549.34;4911872;29;20415;-76
2021/06/30 09:47:46;;;;;;;8.90;6.07;;;;;;;16.57;94.10;99548.88;4907487;29;20059;-77
2021/06/30 09:50:13;;;;;;;9.13;6.60;;;;;;;16.48;94.18;99552.81;4907172;29;20056;-77
2021/06/30 09:52:41;;;;;;;9.27;7.53;;;;;;;16.41;94.32;99568.16;4916580;29;20091;-78
2021/06/30 09:55:27;;;;;;;5.47;3.90;;;;;;;16.40;94.71;99552.13;4908214;29;20499;-76
2021/06/30 09:57:53;;;;;;;5.50;3.97;;;;;;;16.40;94.88;99558.38;4905970;29;20079;-78
2021/06/30 10:00:20;;;;;;;4.03;2.80;;;;;;;16.39;94.88;99556.69;4916272;29;20254;-77
2021/06/30 10:02:49;;;;;;;4.80;3.72;;;;;;;16.37;95.32;99564.19;4916163;29;20058;-78
2021/06/30 10:05:26;;;;;;;6.03;4.07;;;;;;;16.36;95.27;99566.06;4916365;29;20048;-77
2021/06/30 10:07:57;;;;;;;6.78;5.38;;;;;;;16.37;95.36;99575.84;4913724;29;20059;-79
2021/06/30 10:10:23;;;;;;;5.72;4.05;;;;;;;16.36;95.49;99567.94;4911995;29;20067;-77
2021/06/30 10:12:51;;;;;;;3.42;2.97;;;;;;;16.46;95.76;99573.00;4912456;29;20056;-76
2021/06/30 10:15:18;;;;;;;4.18;2.92;;;;;;;16.46;95.62;99581.97;4899903;29;20048;-74
2021/06/30 10:17:45;;;;;;;3.28;2.20;;;;;;;16.49;95.64;99578.84;4910611;29;20071;-77
2021/06/30 10:20:12;;;;;;;2.60;1.65;;;;;;;16.44;95.51;99572.34;4906874;29;20063;-78
2021/06/30 10:22:39;;;;;;;4.68;3.08;;;;;;;16.48;95.69;99588.03;4911349;29;20043;-76
2021/06/30 10:25:07;;;;;;;2.90;1.40;;;;;;;16.42;95.52;99572.53;4914478;29;20055;-77
2021/06/30 10:27:33;;;;;;;2.28;1.55;;;;;;;16.43;95.51;99584.22;4915473;29;20052;-77
2021/06/30 10:30:02;;;;;;;1.50;1.13;;;;;;;16.27;95.32;99586.19;4911910;29;20075;-76
2021/06/30 10:32:29;;;;;;;1.90;1.20;;;;;;;16.21;95.45;99578.84;4914088;29;20051;-77
2021/06/30 10:34:57;;;;;;;1.38;0.95;;;;;;;16.25;95.81;99590.97;4906749;29;20052;-77
2021/06/30 10:37:25;;;;;;;1.38;0.90;;;;;;;16.22;95.51;99594.09;4902148;29;20051;-78
2021/06/30 10:39:53;;;;;;;2.58;1.70;;;;;;;16.14;95.58;99601.50;4910120;29;20459;-78
2021/06/30 10:42:23;;;;;;;1.90;1.10;;;;;;;16.17;95.78;99592.97;4909943;29;20052;-78
2021/06/30 10:44:51;;;;;;;2.10;1.40;;;;;;;16.14;95.77;99593.38;4908279;29;20084;-76
2021/06/30 10:47:41;;;;;;;2.10;1.42;;;;;;;16.14;95.77;99590.66;4907011;29;20123;-77
2021/06/30 10:50:28;;;;;;;2.28;1.40;;;;;;;16.18;95.65;99589.22;4907109;29;20488;-76
2021/06/30 10:52:56;;;;;;;1.88;1.27;;;;;;;16.25;95.86;99590.97;4902391;29;20108;-77
2021/06/30 10:55:47;;;;;;;2.72;1.80;;;;;;;16.32;95.95;99588.28;4905409;29;20068;-76
2021/06/30 10:58:18;;;;;;;2.40;1.48;;;;;;;16.47;95.69;99593.63;4903830;29;20103;-77
2021/06/30 11:00:46;;;;;;;2.72;1.80;;;;;;;16.49;95.38;99584.28;4907809;29;20051;-78
2021/06/30 11:03:29;;;;;;;3.65;2.25;;;;;;;16.53;95.10;99587.41;4906463;29;20255;-77
2021/06/30 11:06:17;;;;;;;2.85;1.95;;;;;;;16.59;94.93;99583.91;4905339;29;20076;-78
2021/06/30 11:08:48;;;;;;;3.00;1.75;;;;;;;16.62;94.71;99584.34;4909767;29;20074;-77
2021/06/30 11:11:16;;;;;;;2.58;1.98;;;;;;;16.66;94.74;99582.91;4909788;29;20048;-78
2021/06/30 11:14:10;;;;;;;2.60;1.92;;;;;;;16.66;94.12;99587.50;4907426;29;20573;-77
2021/06/30 11:16:51;;;;;;;2.53;1.70;;;;;;;16.63;94.26;99596.84;4899346;29;20048;-77
2021/06/30 11:19:40;;;;;;;3.63;2.00;;;;;;;16.58;93.95;99588.50;4907667;29;20111;-78
2021/06/30 11:22:09;;;;;;;3.15;2.13;;;;;;;16.64;94.08;99590.41;4903489;29;20048;-76
2021/06/30 11:24:47;;;;;;;3.25;2.08;;;;;;;16.63;94.02;99593.31;4908576;29;20044;-77
2021/06/30 11:27:44;;;;;;;3.30;2.00;;;;;;;16.62;93.87;99584.34;4896011;29;20503;-77